Time;durP1;ratioP1;P1;durP2;ratioP2;P2;SDS_P1;SDS_P2;PMS_P1;PMS_P2;Temp;Humidity;BMP_temperature;BMP_pressure;BME280_temperature;BME280_humidity;BME280_pressure;Samples;Min_cycle;Max_cycle;Signal;HPM_P1;HPM_P2
2023/05/27 00:00:06;;;;;;;18.70;3.43;;;10.10;99.90;;;;;;5012481;28;20022;-66
2023/05/27 00:02:32;;;;;;;11.27;3.08;;;10.10;99.90;;;;;;5009528;28;20022;-76
2023/05/27 00:04:58;;;;;;;12.45;3.35;;;10.10;99.90;;;;;;5007309;28;20034;-78
2023/05/27 00:07:24;;;;;;;9.97;2.90;;;10.10;99.90;;;;;;4991922;28;20141;-67
2023/05/27 00:09:50;;;;;;;11.70;2.10;;;10.00;99.90;;;;;;4992801;28;20023;-66
2023/05/27 00:12:16;;;;;;;17.65;3.17;;;10.00;99.90;;;;;;4996867;28;20045;-65
2023/05/27 00:14:43;;;;;;;10.17;2.50;;;10.00;99.90;;;;;;4999023;28;20034;-66
2023/05/27 00:17:09;;;;;;;14.48;3.05;;;9.90;99.90;;;;;;5003218;28;20552;-66
2023/05/27 00:19:35;;;;;;;15.02;2.50;;;9.90;99.90;;;;;;4995642;28;20113;-67
2023/05/27 00:22:00;;;;;;;15.50;2.80;;;9.90;99.90;;;;;;4993882;28;20110;-66
2023/05/27 00:24:26;;;;;;;12.30;2.67;;;9.90;99.90;;;;;;4991515;28;20038;-65
2023/05/27 00:26:52;;;;;;;17.60;3.20;;;9.90;99.90;;;;;;4993415;28;20049;-65
2023/05/27 00:29:18;;;;;;;11.47;2.77;;;9.80;99.90;;;;;;4997269;28;20038;-65
2023/05/27 00:31:43;;;;;;;10.77;2.57;;;9.90;99.90;;;;;;4995426;28;20040;-66
2023/05/27 00:34:09;;;;;;;11.33;3.27;;;9.90;99.90;;;;;;4994668;28;20037;-66
2023/05/27 00:36:35;;;;;;;13.87;2.97;;;9.90;99.90;;;;;;4992566;28;20109;-65
2023/05/27 00:39:01;;;;;;;13.60;2.80;;;9.90;99.90;;;;;;4988402;28;20026;-66
2023/05/27 00:41:27;;;;;;;10.15;2.72;;;9.90;99.90;;;;;;4996589;28;20348;-65
2023/05/27 00:43:55;;;;;;;11.63;2.77;;;9.90;99.90;;;;;;4991683;28;20026;-65
2023/05/27 00:46:21;;;;;;;12.82;2.78;;;9.90;99.90;;;;;;4992965;28;20033;-77
2023/05/27 00:48:48;;;;;;;19.87;3.33;;;9.90;99.90;;;;;;4994445;28;20330;-65
2023/05/27 00:51:14;;;;;;;9.52;2.45;;;9.80;99.90;;;;;;4991228;28;20092;-65
2023/05/27 00:53:42;;;;;;;15.95;3.00;;;9.80;99.90;;;;;;4985105;28;20038;-65
2023/05/27 00:56:09;;;;;;;12.85;3.15;;;9.90;99.90;;;;;;4992735;28;20019;-65
2023/05/27 00:58:36;;;;;;;14.38;2.83;;;9.80;99.90;;;;;;4993990;28;20026;-65
2023/05/27 01:01:03;;;;;;;8.68;2.50;;;9.90;99.90;;;;;;4994033;28;20121;-67
2023/05/27 01:03:32;;;;;;;11.52;2.90;;;9.80;99.90;;;;;;4994728;28;20033;-66
2023/05/27 01:06:20;;;;;;;14.43;2.70;;;9.80;99.90;;;;;;4985737;28;20031;-65
2023/05/27 01:09:25;;;;;;;13.57;2.85;;;9.80;99.90;;;;;;4987544;28;20105;-65
2023/05/27 01:12:10;;;;;;;17.60;3.45;;;9.80;99.90;;;;;;4949407;28;20123;-65
2023/05/27 01:14:39;;;;;;;13.20;3.47;;;9.80;99.90;;;;;;4984952;28;20354;-65
2023/05/27 01:17:06;;;;;;;10.45;2.88;;;9.80;99.90;;;;;;4992115;28;20377;-64
2023/05/27 01:19:40;;;;;;;8.43;2.95;;;9.70;99.90;;;;;;4991604;28;20019;-65
2023/05/27 01:22:07;;;;;;;17.27;3.20;;;9.70;99.90;;;;;;4993865;28;20114;-65
2023/05/27 01:24:33;;;;;;;;;;;9.60;99.90;;;;;;4995525;28;20322;-65
2023/05/27 01:27:01;;;;;;;13.40;2.43;;;9.60;99.90;;;;;;4990912;28;19910;-66
2023/05/27 01:29:28;;;;;;;14.60;2.55;;;9.50;99.90;;;;;;4988761;28;20288;-65
2023/05/27 01:31:56;;;;;;;;;;;9.50;99.90;;;;;;5012081;28;20026;-65
2023/05/27 01:34:33;;;;;;;7.88;2.28;;;9.50;99.90;;;;;;5010186;28;19928;-77
2023/05/27 01:37:02;;;;;;;;;;;9.50;99.90;;;;;;4995632;28;20080;-65
2023/05/27 01:39:28;;;;;;;16.15;3.47;;;9.40;99.90;;;;;;4984313;28;19912;-65
2023/05/27 01:41:56;;;;;;;12.50;3.08;;;9.40;99.90;;;;;;4997320;28;20117;-71
2023/05/27 01:44:22;;;;;;;10.75;3.58;;;9.30;99.90;;;;;;4993406;28;20030;-66
2023/05/27 01:46:48;;;;;;;11.88;2.75;;;9.40;99.90;;;;;;4994090;28;20041;-65
2023/05/27 01:49:14;;;;;;;9.80;2.80;;;9.30;99.90;;;;;;4995687;28;20101;-65
2023/05/27 01:51:39;;;;;;;11.10;3.87;;;9.30;99.90;;;;;;4997622;28;20422;-65
2023/05/27 01:54:06;;;;;;;16.70;3.40;;;9.20;99.90;;;;;;4994448;28;20109;-65
2023/05/27 01:56:32;;;;;;;15.07;3.53;;;9.20;99.90;;;;;;4996804;28;20302;-65
2023/05/27 01:58:57;;;;;;;17.50;3.27;;;9.20;99.90;;;;;;4997873;28;20026;-76
2023/05/27 02:01:23;;;;;;;13.20;3.03;;;9.20;99.90;;;;;;4996822;28;20325;-65
2023/05/27 02:03:49;;;;;;;14.47;3.40;;;9.20;99.90;;;;;;4997286;28;20018;-66
2023/05/27 02:06:15;;;;;;;16.10;3.40;;;9.20;99.90;;;;;;4996309;28;20030;-65
2023/05/27 02:08:40;;;;;;;11.43;2.80;;;9.20;99.90;;;;;;4994341;28;20122;-65
2023/05/27 02:11:06;;;;;;;12.70;2.80;;;9.20;99.90;;;;;;4996304;28;20030;-65
2023/05/27 02:13:32;;;;;;;12.80;3.63;;;9.10;99.90;;;;;;4997983;28;20034;-65
2023/05/27 02:15:57;;;;;;;12.03;3.73;;;9.10;99.90;;;;;;4990573;28;20357;-65
2023/05/27 02:18:25;;;;;;;11.00;3.00;;;9.10;99.90;;;;;;5000149;28;20030;-66
2023/05/27 02:20:51;;;;;;;17.60;3.13;;;9.00;99.90;;;;;;4994772;28;20066;-77
2023/05/27 02:23:16;;;;;;;13.57;2.90;;;9.10;99.90;;;;;;4995362;28;20446;-66
2023/05/27 02:25:42;;;;;;;10.83;3.30;;;9.10;99.90;;;;;;4995977;28;20027;-65
2023/05/27 02:28:08;;;;;;;12.00;3.07;;;9.10;99.90;;;;;;4996403;28;20031;-65
2023/05/27 02:30:34;;;;;;;19.50;3.83;;;9.10;99.90;;;;;;4995468;28;20034;-74
2023/05/27 02:32:59;;;;;;;15.90;3.10;;;9.10;99.90;;;;;;4995961;28;20119;-65
2023/05/27 02:35:25;;;;;;;10.97;3.53;;;9.20;99.90;;;;;;4995945;28;20022;-65
2023/05/27 02:37:51;;;;;;;9.50;3.47;;;9.20;99.90;;;;;;4995105;28;20027;-65
2023/05/27 02:40:24;;;;;;;15.57;3.93;;;9.20;99.90;;;;;;4996535;28;20026;-65
2023/05/27 02:42:50;;;;;;;15.20;3.33;;;9.20;99.90;;;;;;4995303;28;20034;-65
2023/05/27 02:45:16;;;;;;;14.27;3.10;;;9.20;99.90;;;;;;4995707;28;20326;-65
2023/05/27 02:47:42;;;;;;;17.73;4.17;;;9.20;99.90;;;;;;4995407;28;20030;-65
2023/05/27 02:50:08;;;;;;;15.07;3.23;;;9.20;99.90;;;;;;4995114;28;20030;-65
2023/05/27 02:52:33;;;;;;;14.60;2.73;;;9.20;99.90;;;;;;4995475;28;20036;-66
2023/05/27 02:54:59;;;;;;;19.20;3.40;;;9.10;99.90;;;;;;4994932;28;20113;-65
2023/05/27 02:57:25;;;;;;;19.75;3.53;;;9.00;99.90;;;;;;4995509;28;20026;-65
2023/05/27 02:59:51;;;;;;;23.10;3.67;;;8.90;99.90;;;;;;4995764;28;20049;-65
2023/05/27 03:02:16;;;;;;;10.70;3.17;;;8.90;99.90;;;;;;4995146;28;20022;-65
2023/05/27 03:04:42;;;;;;;14.43;3.40;;;8.80;99.90;;;;;;4995651;28;20417;-79
2023/05/27 03:07:08;;;;;;;14.90;3.50;;;8.80;99.90;;;;;;4985114;28;20037;-66
2023/05/27 03:09:34;;;;;;;14.93;3.60;;;8.70;99.90;;;;;;4995304;28;20085;-65
2023/05/27 03:11:59;;;;;;;13.03;3.07;;;8.60;99.90;;;;;;4994601;28;20109;-65
2023/05/27 03:14:25;;;;;;;18.13;3.33;;;8.60;99.90;;;;;;4995687;28;20414;-65
2023/05/27 03:16:50;;;;;;;19.27;3.93;;;8.50;99.90;;;;;;4994547;28;20042;-65
2023/05/27 03:19:16;;;;;;;12.33;3.30;;;8.50;99.90;;;;;;4995039;28;20109;-65
2023/05/27 03:21:42;;;;;;;14.07;3.20;;;8.60;99.90;;;;;;4995313;28;20022;-75
2023/05/27 03:24:07;;;;;;;10.30;3.23;;;8.60;99.90;;;;;;4995270;28;20045;-65
2023/05/27 03:26:33;;;;;;;14.23;3.40;;;8.60;99.90;;;;;;4993767;28;20042;-65
2023/05/27 03:28:59;;;;;;;15.73;4.10;;;8.50;99.90;;;;;;4995227;28;20030;-65
2023/05/27 03:31:25;;;;;;;12.97;3.53;;;8.50;99.90;;;;;;4997882;28;20037;-65
2023/05/27 03:33:51;;;;;;;17.07;3.43;;;8.50;99.90;;;;;;4994717;28;20026;-65
2023/05/27 03:36:16;;;;;;;13.83;3.67;;;8.50;99.90;;;;;;4994906;28;20026;-65
2023/05/27 03:38:42;;;;;;;13.90;3.00;;;8.50;99.90;;;;;;4994699;28;20025;-65
2023/05/27 03:41:07;;;;;;;19.83;3.83;;;8.50;99.90;;;;;;4994028;28;20101;-66
2023/05/27 03:43:33;;;;;;;9.97;3.30;;;8.50;99.90;;;;;;4995414;28;20034;-65
2023/05/27 03:45:59;;;;;;;9.37;3.97;;;8.50;99.90;;;;;;4994326;28;20452;-65
2023/05/27 03:48:25;;;;;;;11.60;3.10;;;8.50;99.90;;;;;;4994773;28;20034;-67
2023/05/27 03:50:50;;;;;;;11.33;4.03;;;8.50;99.90;;;;;;4993829;28;20076;-65
2023/05/27 03:53:16;;;;;;;17.50;2.93;;;8.50;99.90;;;;;;4994462;28;20053;-65
2023/05/27 03:55:42;;;;;;;12.60;3.17;;;8.50;99.90;;;;;;4994765;28;20018;-65
2023/05/27 03:58:08;;;;;;;15.83;3.20;;;8.50;99.90;;;;;;4993595;28;20036;-65
2023/05/27 04:00:35;;;;;;;17.13;3.60;;;8.50;99.90;;;;;;4995249;28;20026;-65
2023/05/27 04:03:01;;;;;;;11.73;3.58;;;8.60;99.90;;;;;;4993569;28;20109;-65
2023/05/27 04:05:27;;;;;;;14.03;3.60;;;8.60;99.90;;;;;;4995198;28;20101;-65
2023/05/27 04:07:52;;;;;;;16.10;3.90;;;8.60;99.90;;;;;;4992047;28;20034;-65
2023/05/27 04:10:18;;;;;;;16.13;3.33;;;8.50;99.90;;;;;;4994242;28;20033;-65
2023/05/27 04:12:44;;;;;;;15.30;3.17;;;8.60;99.90;;;;;;4995376;28;20041;-65
2023/05/27 04:15:10;;;;;;;20.57;3.87;;;8.60;99.90;;;;;;4993433;28;20519;-65
2023/05/27 04:17:36;;;;;;;17.40;3.83;;;8.60;99.90;;;;;;4995637;28;20105;-65
2023/05/27 04:20:11;;;;;;;11.38;3.22;;;8.70;99.90;;;;;;4992261;28;20347;-65
2023/05/27 04:22:36;;;;;;;20.08;3.03;;;8.60;99.90;;;;;;4993171;28;20030;-65
2023/05/27 04:25:02;;;;;;;17.97;3.10;;;8.70;99.90;;;;;;4994116;28;20105;-65
2023/05/27 04:27:28;;;;;;;20.95;3.42;;;8.80;99.90;;;;;;4995067;28;20022;-65
2023/05/27 04:29:54;;;;;;;18.17;3.83;;;8.90;99.90;;;;;;4994324;28;20076;-65
2023/05/27 04:32:20;;;;;;;17.47;3.43;;;8.80;99.90;;;;;;4994017;28;20306;-65
2023/05/27 04:34:47;;;;;;;11.13;3.22;;;8.80;99.90;;;;;;4995026;28;20422;-65
2023/05/27 04:37:12;;;;;;;24.42;4.28;;;8.80;99.90;;;;;;4993410;28;20022;-65
2023/05/27 04:39:45;;;;;;;14.13;3.67;;;8.90;99.90;;;;;;4994074;28;20462;-77
2023/05/27 04:42:12;;;;;;;17.42;4.03;;;8.90;99.90;;;;;;4994621;28;20080;-65
2023/05/27 04:44:38;;;;;;;;;;;9.10;99.90;;;;;;4997969;28;20069;-65
2023/05/27 04:47:05;;;;;;;18.23;3.55;;;9.10;99.90;;;;;;4998463;28;19948;-65
2023/05/27 04:49:31;;;;;;;15.40;3.17;;;9.20;99.90;;;;;;4997362;28;20034;-66
2023/05/27 04:51:59;;;;;;;13.35;3.33;;;9.30;99.90;;;;;;4997104;28;20030;-65
2023/05/27 04:54:25;;;;;;;21.00;4.18;;;9.40;99.90;;;;;;4997093;28;20052;-66
2023/05/27 04:56:54;;;;;;;21.77;3.90;;;9.50;99.90;;;;;;4996116;28;20034;-65
2023/05/27 04:59:21;;;;;;;14.57;3.50;;;9.60;99.90;;;;;;4997435;28;20358;-65
2023/05/27 05:02:09;;;;;;;22.95;3.92;;;9.60;99.90;;;;;;4994571;28;20019;-65
2023/05/27 05:04:37;;;;;;;16.30;3.53;;;9.70;99.90;;;;;;5003414;28;20034;-66
2023/05/27 05:07:03;;;;;;;12.45;3.25;;;9.80;99.90;;;;;;5004336;28;20118;-65
2023/05/27 05:09:29;;;;;;;11.65;3.70;;;9.80;99.90;;;;;;4999543;28;20033;-65
2023/05/27 05:11:55;;;;;;;21.50;4.10;;;9.90;99.90;;;;;;5006718;28;20038;-65
2023/05/27 05:14:21;;;;;;;16.30;3.67;;;9.90;99.90;;;;;;4993018;28;20027;-65
2023/05/27 05:16:47;;;;;;;14.37;3.73;;;9.90;99.90;;;;;;4993538;28;20484;-65
2023/05/27 05:19:13;;;;;;;13.80;3.57;;;9.90;99.90;;;;;;5002224;28;20027;-78
2023/05/27 05:21:38;;;;;;;17.70;3.53;;;9.90;99.90;;;;;;5012698;28;20437;-65
2023/05/27 05:24:05;;;;;;;24.23;3.17;;;10.00;99.90;;;;;;5001104;28;20046;-65
2023/05/27 05:26:31;;;;;;;24.42;4.25;;;9.90;99.90;;;;;;4997691;28;20031;-66
2023/05/27 05:28:57;;;;;;;10.17;3.70;;;10.00;99.90;;;;;;4990297;28;20038;-66
2023/05/27 05:31:23;;;;;;;12.27;3.57;;;10.00;99.90;;;;;;4995230;28;20085;-65
2023/05/27 05:33:48;;;;;;;13.13;3.72;;;10.10;99.90;;;;;;4998274;28;20097;-65
2023/05/27 05:36:14;;;;;;;11.40;3.03;;;10.20;99.90;;;;;;4994386;28;20470;-66
2023/05/27 05:38:40;;;;;;;15.80;3.57;;;10.20;99.90;;;;;;4990791;28;20046;-65
2023/05/27 05:41:06;;;;;;;15.00;3.70;;;10.20;99.90;;;;;;4993602;28;20019;-65
2023/05/27 05:43:32;;;;;;;16.57;3.80;;;10.20;99.90;;;;;;4996983;28;20030;-66
2023/05/27 05:45:59;;;;;;;19.23;4.27;;;10.20;99.90;;;;;;5000787;28;20117;-65
2023/05/27 05:48:25;;;;;;;17.83;3.90;;;10.20;99.90;;;;;;5002988;28;20022;-65
2023/05/27 05:50:51;;;;;;;13.17;3.47;;;10.20;99.90;;;;;;4997384;28;20031;-65
2023/05/27 05:53:17;;;;;;;17.77;3.93;;;10.30;99.90;;;;;;4997325;28;20268;-74
2023/05/27 05:55:43;;;;;;;19.30;3.27;;;10.40;99.90;;;;;;4998051;28;20458;-66
2023/05/27 05:58:08;;;;;;;22.67;3.90;;;10.40;99.90;;;;;;4989495;28;20432;-65
2023/05/27 06:00:35;;;;;;;17.80;3.90;;;10.50;99.90;;;;;;4989793;28;20061;-65
2023/05/27 06:03:01;;;;;;;13.65;3.53;;;10.50;99.90;;;;;;5010352;28;20025;-66
2023/05/27 06:05:27;;;;;;;17.27;3.80;;;10.60;99.90;;;;;;4986580;28;20104;-66
2023/05/27 06:07:53;;;;;;;17.83;4.40;;;10.70;99.90;;;;;;4994447;28;20330;-65
2023/05/27 06:10:19;;;;;;;15.30;3.60;;;10.80;99.90;;;;;;4989335;28;20038;-66
2023/05/27 06:12:45;;;;;;;18.80;4.00;;;10.80;99.90;;;;;;4995361;28;20105;-66
2023/05/27 06:15:12;;;;;;;20.60;3.43;;;10.90;99.90;;;;;;4990892;28;20386;-65
2023/05/27 06:17:37;;;;;;;18.98;5.00;;;11.00;99.90;;;;;;4992537;28;20270;-65
2023/05/27 06:20:04;;;;;;;15.27;4.03;;;11.10;99.90;;;;;;4986530;28;20369;-78
2023/05/27 06:22:30;;;;;;;14.23;3.78;;;11.10;99.90;;;;;;4990921;28;20393;-65
2023/05/27 06:24:55;;;;;;;13.03;4.03;;;11.20;99.90;;;;;;4991609;28;20062;-65
2023/05/27 06:27:21;;;;;;;24.23;4.20;;;11.20;99.90;;;;;;4987752;28;20057;-66
2023/05/27 06:29:47;;;;;;;15.23;3.93;;;11.30;99.90;;;;;;4990594;28;20444;-66
2023/05/27 06:32:13;;;;;;;17.87;4.50;;;11.30;99.90;;;;;;4996657;28;20325;-65
2023/05/27 06:34:39;;;;;;;11.50;3.90;;;11.30;99.90;;;;;;4999644;28;20077;-65
2023/05/27 06:37:05;;;;;;;13.25;3.53;;;11.40;99.90;;;;;;4990110;28;20378;-67
2023/05/27 06:39:31;;;;;;;17.37;4.30;;;11.50;99.90;;;;;;4984211;28;20030;-65
2023/05/27 06:41:57;;;;;;;12.73;3.53;;;11.50;99.90;;;;;;4987502;28;20030;-65
2023/05/27 06:44:22;;;;;;;14.57;3.80;;;11.50;99.90;;;;;;4989339;28;20027;-66
2023/05/27 06:46:48;;;;;;;12.30;3.97;;;11.50;99.90;;;;;;5008247;28;20034;-66
2023/05/27 06:49:14;;;;;;;13.70;4.10;;;11.50;99.90;;;;;;4993976;28;20034;-66
2023/05/27 06:51:40;;;;;;;15.77;4.07;;;11.60;99.90;;;;;;4984743;28;20037;-65
2023/05/27 06:54:06;;;;;;;12.57;3.17;;;11.60;99.90;;;;;;4990947;28;20030;-65
2023/05/27 06:56:31;;;;;;;25.43;4.30;;;11.60;99.90;;;;;;5002491;28;20030;-77
2023/05/27 06:58:57;;;;;;;22.30;3.97;;;11.70;99.90;;;;;;4984558;28;20022;-66
2023/05/27 07:01:23;;;;;;;11.33;3.73;;;11.70;99.90;;;;;;4988757;28;20034;-65
2023/05/27 07:03:49;;;;;;;20.20;4.33;;;11.70;99.90;;;;;;4991059;28;20732;-75
2023/05/27 07:06:16;;;;;;;19.23;4.37;;;11.80;99.90;;;;;;4991904;28;20391;-65
2023/05/27 07:08:41;;;;;;;16.35;4.53;;;11.70;99.90;;;;;;4987685;28;20035;-65
2023/05/27 07:11:07;;;;;;;16.37;3.77;;;11.80;99.90;;;;;;4991663;28;20077;-65
2023/05/27 07:13:33;;;;;;;25.50;4.60;;;11.80;99.90;;;;;;4988475;28;20086;-79
2023/05/27 07:15:58;;;;;;;15.70;3.57;;;11.80;99.90;;;;;;4995995;28;20038;-65
2023/05/27 07:18:24;;;;;;;14.33;2.93;;;11.90;99.90;;;;;;4983756;28;20057;-66
2023/05/27 07:20:50;;;;;;;18.00;3.87;;;11.90;99.90;;;;;;4988066;28;20022;-66
2023/05/27 07:23:16;;;;;;;21.50;3.97;;;12.00;99.90;;;;;;4992118;28;20022;-67
2023/05/27 07:25:41;;;;;;;18.80;3.70;;;12.00;99.90;;;;;;4992339;28;20085;-66
2023/05/27 07:28:07;;;;;;;15.67;4.10;;;12.10;99.90;;;;;;4995389;28;20034;-80
2023/05/27 07:30:33;;;;;;;15.57;4.40;;;12.20;99.90;;;;;;4993181;28;20087;-78
2023/05/27 07:32:59;;;;;;;23.83;3.83;;;12.30;99.90;;;;;;4995836;28;20591;-65
2023/05/27 07:35:25;;;;;;;15.67;3.73;;;12.40;99.90;;;;;;4995450;28;20030;-65
2023/05/27 07:37:51;;;;;;;16.20;4.53;;;12.50;99.90;;;;;;4989707;28;20425;-72
2023/05/27 07:40:16;;;;;;;24.50;4.87;;;12.50;99.90;;;;;;4982339;28;20315;-79
2023/05/27 07:42:42;;;;;;;23.07;4.27;;;12.60;99.90;;;;;;4999833;28;20021;-66
2023/05/27 07:45:09;;;;;;;16.70;4.00;;;12.60;99.90;;;;;;4992724;28;20108;-77
2023/05/27 07:47:34;;;;;;;16.58;3.88;;;12.70;99.90;;;;;;4995224;28;20038;-65
2023/05/27 07:50:00;;;;;;;9.07;3.30;;;12.80;99.90;;;;;;4991474;28;20030;-65
2023/05/27 07:52:26;;;;;;;15.83;3.37;;;12.80;99.90;;;;;;5000679;28;20034;-66
2023/05/27 07:54:52;;;;;;;11.50;4.13;;;12.80;99.90;;;;;;4985321;28;20315;-65
2023/05/27 07:57:18;;;;;;;13.23;3.40;;;13.00;99.90;;;;;;4998028;28;20434;-77
2023/05/27 07:59:44;;;;;;;13.68;3.10;;;13.30;99.90;;;;;;4992147;28;20014;-78
2023/05/27 08:02:11;;;;;;;14.40;3.63;;;13.30;99.90;;;;;;4986216;28;20414;-66
2023/05/27 08:04:36;;;;;;;;;;;13.20;99.90;;;;;;4993310;28;20023;-65
2023/05/27 08:07:02;;;;;;;13.90;3.83;;;13.20;99.90;;;;;;4986821;28;19910;-65
2023/05/27 08:09:28;;;;;;;17.30;3.77;;;13.40;99.90;;;;;;4989426;28;20117;-72
2023/05/27 08:11:54;;;;;;;9.73;3.27;;;13.40;99.90;;;;;;4988023;28;20030;-65
2023/05/27 08:14:20;;;;;;;19.03;4.10;;;13.40;99.90;;;;;;4989986;28;20030;-75
2023/05/27 08:16:46;;;;;;;16.60;4.00;;;13.50;99.90;;;;;;4988562;28;20039;-66
2023/05/27 08:19:12;;;;;;;19.73;4.13;;;13.60;99.90;;;;;;4989796;28;20033;-65
2023/05/27 08:21:38;;;;;;;20.10;4.13;;;13.70;99.90;;;;;;4986849;28;20015;-65
2023/05/27 08:24:05;;;;;;;17.93;4.57;;;13.80;99.90;;;;;;4988992;28;20229;-78
2023/05/27 08:26:31;;;;;;;;;;;13.90;99.90;;;;;;5005709;28;20034;-66
2023/05/27 08:28:56;;;;;;;15.02;3.25;;;13.90;99.90;;;;;;4991362;28;19917;-66
2023/05/27 08:31:22;;;;;;;15.90;3.93;;;14.10;99.90;;;;;;4990808;28;20069;-66
2023/05/27 08:33:48;;;;;;;16.80;3.83;;;14.10;99.90;;;;;;4989918;28;20376;-65
2023/05/27 08:36:15;;;;;;;14.37;3.73;;;14.10;99.90;;;;;;4994931;28;20058;-79
2023/05/27 08:38:41;;;;;;;20.50;4.97;;;14.30;99.90;;;;;;4992454;28;20014;-77
2023/05/27 08:41:07;;;;;;;18.00;4.20;;;14.30;99.90;;;;;;4997442;28;20436;-78
2023/05/27 08:43:34;;;;;;;18.80;4.32;;;14.30;99.90;;;;;;5002598;28;20072;-77
2023/05/27 08:46:01;;;;;;;15.05;3.70;;;14.40;99.90;;;;;;4998373;28;20045;-81
2023/05/27 08:48:27;;;;;;;11.52;3.80;;;14.40;99.90;;;;;;4995194;28;20051;-65
2023/05/27 08:50:53;;;;;;;14.80;4.53;;;14.50;99.90;;;;;;4991929;28;20068;-77
2023/05/27 08:53:20;;;;;;;17.20;4.07;;;14.70;99.90;;;;;;5001076;28;20034;-65
2023/05/27 08:55:48;;;;;;;17.52;4.45;;;14.80;99.90;;;;;;4997459;28;20026;-67
2023/05/27 08:58:15;;;;;;;20.58;4.30;;;15.00;99.90;;;;;;5007156;28;20473;-79
2023/05/27 09:00:41;;;;;;;18.65;3.75;;;15.10;99.90;;;;;;4999415;28;20417;-66
2023/05/27 09:03:08;;;;;;;20.15;3.90;;;15.20;99.90;;;;;;5001417;28;20026;-67
2023/05/27 09:05:34;;;;;;;;;;;15.20;99.90;;;;;;5004412;28;20472;-71
2023/05/27 09:08:00;;;;;;;18.03;4.50;;;15.10;99.90;;;;;;5006277;28;19956;-66
2023/05/27 09:10:38;;;;;;;13.87;3.73;;;15.20;99.90;;;;;;5000507;28;20264;-68
2023/05/27 09:13:04;;;;;;;17.45;3.17;;;15.40;99.90;;;;;;4993284;28;20038;-77
2023/05/27 09:15:34;;;;;;;14.13;4.10;;;15.30;99.90;;;;;;4996097;28;20429;-67
2023/05/27 09:18:02;;;;;;;13.68;3.92;;;15.30;99.90;;;;;;4989202;28;20041;-77
2023/05/27 09:20:29;;;;;;;12.35;3.08;;;15.40;99.90;;;;;;4991872;28;20348;-67
2023/05/27 09:23:03;;;;;;;21.33;4.55;;;15.40;99.90;;;;;;4988804;28;20377;-68
2023/05/27 09:25:29;;;;;;;17.17;4.30;;;15.30;99.90;;;;;;5000872;28;20298;-66
2023/05/27 09:27:56;;;;;;;14.10;3.53;;;15.40;99.90;;;;;;5000996;28;20054;-68
2023/05/27 09:30:25;;;;;;;15.32;3.60;;;15.50;99.90;;;;;;4996095;28;20030;-66
2023/05/27 09:32:51;;;;;;;12.05;3.45;;;15.50;99.90;;;;;;4997951;28;20026;-66
2023/05/27 09:35:17;;;;;;;22.23;5.27;;;15.60;99.90;;;;;;4998029;28;20365;-66
2023/05/27 09:37:45;;;;;;;17.27;3.72;;;15.80;99.90;;;;;;4995153;28;20318;-72
2023/05/27 09:40:14;;;;;;;13.57;3.70;;;15.80;99.90;;;;;;4996725;28;20426;-75
2023/05/27 09:42:45;;;;;;;14.52;3.72;;;15.90;99.90;;;;;;4993705;28;20113;-66
2023/05/27 09:45:16;;;;;;;18.95;4.15;;;16.00;99.90;;;;;;4997783;28;20031;-75
2023/05/27 09:47:52;;;;;;;20.65;3.97;;;16.10;99.90;;;;;;4994561;28;20034;-66
2023/05/27 09:50:20;;;;;;;17.73;4.15;;;16.10;99.90;;;;;;4995416;28;20030;-77
2023/05/27 09:52:47;;;;;;;15.13;4.13;;;16.20;99.90;;;;;;4997075;28;20426;-66
2023/05/27 09:55:14;;;;;;;18.50;3.95;;;16.20;99.90;;;;;;4996883;28;20030;-67
2023/05/27 09:57:40;;;;;;;18.88;3.40;;;16.20;99.90;;;;;;4997052;28;20357;-67
2023/05/27 10:00:17;;;;;;;16.40;3.88;;;16.20;99.90;;;;;;4996763;28;20030;-78
2023/05/27 10:02:45;;;;;;;16.55;3.80;;;16.20;99.90;;;;;;4986903;28;20043;-66
2023/05/27 10:05:13;;;;;;;14.13;3.40;;;16.20;99.90;;;;;;4993007;28;20026;-75
2023/05/27 10:07:41;;;;;;;11.65;3.15;;;16.30;99.90;;;;;;4994789;28;20022;-75
2023/05/27 10:10:09;;;;;;;11.60;3.97;;;16.50;99.90;;;;;;4988735;28;20110;-69
2023/05/27 10:12:37;;;;;;;16.15;4.07;;;16.50;99.90;;;;;;4991403;28;20058;-68
2023/05/27 10:15:04;;;;;;;13.93;3.60;;;16.50;99.90;;;;;;4991367;28;20023;-75
2023/05/27 10:17:48;;;;;;;17.63;3.53;;;16.50;99.90;;;;;;4987224;28;20042;-77
2023/05/27 10:20:31;;;;;;;15.10;3.60;;;16.60;99.90;;;;;;4993763;28;20041;-74
2023/05/27 10:23:15;;;;;;;21.25;3.60;;;16.60;99.90;;;;;;4991843;28;20014;-66
2023/05/27 10:25:47;;;;;;;13.95;3.53;;;16.60;99.90;;;;;;4988678;28;20022;-66
2023/05/27 10:28:35;;;;;;;20.52;4.35;;;16.70;99.90;;;;;;4996631;28;20030;-68
2023/05/27 10:31:11;;;;;;;17.50;3.67;;;16.70;99.90;;;;;;5002691;28;20030;-67
2023/05/27 10:33:47;;;;;;;16.35;4.70;;;16.60;99.90;;;;;;5009169;28;20080;-68
2023/05/27 10:36:32;;;;;;;21.27;4.10;;;16.50;99.90;;;;;;4992532;28;20717;-68
2023/05/27 10:39:01;;;;;;;14.38;4.25;;;16.70;99.90;;;;;;5012866;28;20086;-68
2023/05/27 10:41:27;;;;;;;17.35;4.53;;;16.30;99.90;;;;;;5008592;28;20025;-67
2023/05/27 10:44:00;;;;;;;15.77;4.65;;;16.30;99.90;;;;;;4994301;28;20100;-74
2023/05/27 10:46:26;;;;;;;20.73;4.75;;;16.50;99.90;;;;;;4987626;28;20037;-68
2023/05/27 10:48:52;;;;;;;21.10;4.82;;;16.60;99.90;;;;;;4990909;28;20049;-69
2023/05/27 10:51:18;;;;;;;10.55;4.15;;;16.50;99.90;;;;;;4993705;28;20030;-68
2023/05/27 10:53:46;;;;;;;10.53;3.67;;;16.30;99.90;;;;;;5003417;28;20029;-68
2023/05/27 10:56:12;;;;;;;15.75;4.68;;;16.20;99.90;;;;;;4988892;28;20026;-69
2023/05/27 10:58:38;;;;;;;14.63;4.27;;;16.20;99.90;;;;;;4993625;28;20111;-68
2023/05/27 11:01:10;;;;;;;20.80;4.38;;;16.20;99.90;;;;;;5000089;28;20034;-74
2023/05/27 11:03:45;;;;;;;18.63;4.43;;;16.20;99.90;;;;;;5001650;28;20026;-68
2023/05/27 11:06:13;;;;;;;12.00;2.90;;;16.20;99.90;;;;;;4996570;28;20031;-66
2023/05/27 11:08:39;;;;;;;21.10;4.70;;;16.10;99.90;;;;;;5001607;28;20018;-67
2023/05/27 11:11:09;;;;;;;17.17;5.05;;;16.10;99.90;;;;;;5001032;28;20117;-68
2023/05/27 11:13:43;;;;;;;11.40;3.15;;;16.20;99.90;;;;;;4994771;28;20026;-67
2023/05/27 11:16:09;;;;;;;9.70;3.28;;;16.00;99.90;;;;;;4997811;28;20046;-68
2023/05/27 11:18:45;;;;;;;9.40;3.15;;;15.90;99.90;;;;;;4995370;28;20177;-69
2023/05/27 11:21:12;;;;;;;13.27;4.25;;;15.80;99.90;;;;;;4999594;28;20031;-68
2023/05/27 11:23:43;;;;;;;19.77;4.80;;;15.70;99.90;;;;;;4998504;28;20038;-67
2023/05/27 11:26:16;;;;;;;19.48;4.18;;;15.80;99.90;;;;;;4999300;28;20034;-67
2023/05/27 11:29:05;;;;;;;14.18;3.92;;;16.00;99.90;;;;;;4997342;28;20023;-78
2023/05/27 11:31:31;;;;;;;15.55;4.78;;;16.00;99.90;;;;;;5003816;28;20068;-69
2023/05/27 11:33:57;;;;;;;11.77;4.17;;;16.10;99.90;;;;;;5002885;28;20065;-66
2023/05/27 11:36:27;;;;;;;15.40;4.70;;;16.10;99.90;;;;;;5013365;28;20076;-74
2023/05/27 11:38:58;;;;;;;13.05;4.18;;;16.20;99.90;;;;;;4994811;28;20035;-68
2023/05/27 11:41:29;;;;;;;14.77;4.97;;;16.30;99.90;;;;;;5016222;28;20050;-75
2023/05/27 11:44:05;;;;;;;15.43;4.72;;;16.50;99.90;;;;;;5005440;28;20065;-69
2023/05/27 11:46:35;;;;;;;14.68;4.10;;;16.60;99.90;;;;;;5013669;28;20019;-67
2023/05/27 11:49:04;;;;;;;19.63;5.28;;;16.60;99.90;;;;;;4997628;28;20038;-74
2023/05/27 11:51:31;;;;;;;14.85;3.95;;;16.40;99.90;;;;;;4997158;28;20032;-77
2023/05/27 11:54:00;;;;;;;14.55;4.03;;;16.40;99.90;;;;;;5003023;28;20037;-68
2023/05/27 11:56:28;;;;;;;18.75;5.20;;;16.40;99.90;;;;;;5013031;28;20021;-68
2023/05/27 11:58:55;;;;;;;17.50;4.63;;;16.40;99.90;;;;;;5009052;28;20050;-69
2023/05/27 12:01:21;;;;;;;14.68;4.00;;;16.50;99.90;;;;;;5003616;28;20432;-68
2023/05/27 12:03:47;;;;;;;20.95;5.22;;;16.40;99.90;;;;;;5007883;28;20065;-67
2023/05/27 12:06:13;;;;;;;12.93;4.70;;;16.50;99.90;;;;;;5000284;28;20117;-77
2023/05/27 12:08:40;;;;;;;17.48;4.25;;;16.60;99.90;;;;;;5014582;28;20018;-67
2023/05/27 12:11:06;;;;;;;12.80;4.53;;;16.70;99.90;;;;;;5001752;28;20058;-66
2023/05/27 12:13:32;;;;;;;15.07;4.73;;;16.80;99.90;;;;;;5004703;28;20057;-66
2023/05/27 12:15:58;;;;;;;16.30;4.20;;;16.70;99.90;;;;;;5000443;28;20054;-67
2023/05/27 12:18:25;;;;;;;21.38;5.13;;;16.70;99.90;;;;;;5004675;28;20030;-67
2023/05/27 12:20:51;;;;;;;12.13;4.60;;;16.60;99.90;;;;;;4990832;28;20041;-69
2023/05/27 12:23:17;;;;;;;18.10;4.05;;;16.60;99.90;;;;;;4988408;28;20038;-68
2023/05/27 12:25:44;;;;;;;11.60;2.80;;;16.50;99.90;;;;;;4977806;28;20022;-68
2023/05/27 12:28:10;;;;;;;14.88;4.15;;;16.70;99.90;;;;;;4982013;28;20550;-68
2023/05/27 12:30:37;;;;;;;12.85;2.85;;;16.60;99.90;;;;;;4988052;28;20042;-68
2023/05/27 12:33:03;;;;;;;20.13;5.75;;;16.50;99.90;;;;;;4985336;28;20022;-67
2023/05/27 12:35:30;;;;;;;;;;;16.50;99.90;;;;;;4984457;28;20312;-67
2023/05/27 12:37:55;;;;;;;15.70;3.80;;;16.50;99.90;;;;;;4980172;28;19913;-67
2023/05/27 12:40:21;;;;;;;12.37;3.40;;;16.60;99.90;;;;;;5007748;28;20030;-75
2023/05/27 12:42:48;;;;;;;13.60;4.43;;;16.60;99.90;;;;;;4994896;28;20026;-67